createdAt,value
2022-11-30T00:00:27.364Z,18.87
2022-11-30T00:05:18.953Z,19.27
2022-11-30T00:10:10.862Z,21.50
2022-11-30T00:15:02.555Z,22.67
2022-11-30T00:19:54.104Z,23.27
2022-11-30T00:24:45.928Z,22.70
2022-11-30T00:29:37.681Z,23.37
2022-11-30T00:34:29.214Z,22.27
2022-11-30T00:39:20.749Z,22.50
2022-11-30T00:44:12.463Z,22.80
2022-11-30T00:49:03.968Z,24.17
2022-11-30T00:53:55.574Z,24.27
2022-11-30T00:58:47.336Z,23.73
2022-11-30T01:03:38.913Z,23.23
2022-11-30T01:08:30.690Z,24.40
2022-11-30T01:13:22.199Z,23.60
2022-11-30T01:18:13.853Z,24.10
2022-11-30T01:23:05.574Z,24.97
2022-11-30T01:27:57.080Z,23.20
2022-11-30T01:32:48.594Z,24.60
2022-11-30T01:37:40.149Z,23.80
2022-11-30T01:42:33.086Z,24.37
2022-11-30T01:47:37.954Z,25.77
2022-11-30T01:52:35.397Z,24.80
2022-11-30T01:57:41.009Z,24.63
2022-11-30T02:02:43.300Z,25.43
2022-11-30T02:07:35.228Z,25.23
2022-11-30T02:13:00.145Z,24.60
2022-11-30T02:18:11.732Z,26.77
2022-11-30T02:23:21.252Z,25.07
2022-11-30T02:28:31.022Z,24.13
2022-11-30T02:33:27.772Z,23.73
2022-11-30T02:38:22.726Z,24.23
2022-11-30T02:43:16.136Z,21.87
2022-11-30T02:48:10.092Z,21.07
2022-11-30T02:53:02.247Z,22.23
2022-11-30T02:57:53.815Z,22.13
2022-11-30T03:02:45.628Z,21.17
2022-11-30T03:07:37.864Z,22.17
2022-11-30T03:12:29.592Z,21.67
2022-11-30T03:17:21.101Z,22.60
2022-11-30T03:22:12.638Z,21.70
2022-11-30T03:27:04.196Z,20.60
2022-11-30T03:31:55.741Z,20.60
2022-11-30T03:36:47.329Z,21.27
2022-11-30T03:41:38.866Z,21.03
2022-11-30T03:46:30.594Z,22.10
2022-11-30T03:51:22.169Z,20.73
2022-11-30T03:56:14.661Z,22.97
2022-11-30T04:01:12.050Z,22.23
2022-11-30T04:06:05.148Z,22.17
2022-11-30T04:10:59.256Z,21.10
2022-11-30T04:15:52.431Z,22.43
2022-11-30T04:20:44.132Z,22.80
2022-11-30T04:25:38.462Z,23.73
2022-11-30T04:30:29.985Z,23.27
2022-11-30T04:35:21.656Z,25.07
2022-11-30T04:40:13.411Z,24.07
2022-11-30T04:45:05.338Z,25.73
2022-11-30T04:49:56.937Z,24.07
2022-11-30T04:54:48.876Z,24.67
2022-11-30T04:59:40.687Z,24.10
2022-11-30T05:04:32.234Z,23.20
2022-11-30T05:09:23.841Z,24.07
2022-11-30T05:14:15.447Z,22.50
2022-11-30T05:19:07.031Z,23.60
2022-11-30T05:23:58.698Z,23.00
2022-11-30T05:28:50.252Z,21.40
2022-11-30T05:33:41.792Z,23.67
2022-11-30T05:38:33.389Z,23.03
2022-11-30T05:43:24.948Z,23.90
2022-11-30T05:48:16.496Z,25.33
2022-11-30T05:53:08.074Z,26.33
2022-11-30T05:57:59.576Z,28.13
2022-11-30T06:02:58.343Z,28.30
2022-11-30T06:07:50.168Z,26.63
2022-11-30T06:12:42.798Z,28.13
2022-11-30T06:17:34.381Z,26.37
2022-11-30T06:22:25.974Z,28.07
2022-11-30T06:27:17.593Z,27.50
2022-11-30T06:32:09.141Z,27.33
2022-11-30T06:37:00.763Z,25.63
2022-11-30T06:41:54.602Z,24.53
2022-11-30T06:46:46.429Z,23.10
2022-11-30T06:51:39.613Z,22.00
2022-11-30T06:56:31.199Z,22.03
2022-11-30T07:01:22.825Z,20.27
2022-11-30T07:06:14.721Z,20.60
2022-11-30T07:11:07.681Z,18.93
2022-11-30T07:15:59.240Z,19.97
2022-11-30T07:20:50.836Z,20.37
2022-11-30T07:26:01.182Z,19.73
2022-11-30T07:30:52.685Z,18.97
2022-11-30T07:35:44.197Z,19.17
2022-11-30T07:40:35.775Z,18.30
2022-11-30T07:45:27.310Z,19.00
2022-11-30T07:50:18.824Z,17.60
2022-11-30T07:55:10.475Z,16.60
2022-11-30T08:00:02.357Z,15.97
2022-11-30T08:05:04.079Z,16.33
2022-11-30T08:09:55.673Z,15.97
2022-11-30T08:15:18.301Z,16.67
2022-11-30T08:19:58.741Z,16.13
2022-11-30T08:24:50.375Z,16.50
2022-11-30T08:29:42.308Z,16.93
2022-11-30T08:34:33.802Z,16.77
2022-11-30T08:39:27.872Z,17.10
2022-11-30T08:44:19.456Z,16.70
2022-11-30T08:49:26.331Z,17.97
2022-11-30T08:54:17.980Z,19.17
2022-11-30T08:59:09.509Z,18.50
2022-11-30T09:04:01.193Z,18.87
2022-11-30T09:08:55.368Z,18.10
2022-11-30T09:13:48.159Z,18.50
2022-11-30T09:18:39.750Z,18.67
2022-11-30T09:23:31.494Z,18.83
2022-11-30T09:28:23.091Z,18.23
2022-11-30T09:33:15.050Z,19.07
2022-11-30T09:38:06.572Z,19.33
2022-11-30T09:43:04.048Z,19.77
2022-11-30T09:48:18.076Z,20.30
2022-11-30T09:53:31.978Z,20.50
2022-11-30T09:58:48.250Z,21.93
2022-11-30T10:03:39.977Z,21.37
2022-11-30T10:08:51.837Z,22.33
2022-11-30T10:14:05.185Z,20.67
2022-11-30T10:19:23.823Z,21.80
2022-11-30T10:24:46.406Z,22.27
2022-11-30T10:29:42.005Z,21.83
2022-11-30T10:34:36.073Z,21.30
2022-11-30T10:39:33.949Z,22.70
2022-11-30T10:44:31.228Z,23.37
2022-11-30T10:49:23.969Z,25.13
2022-11-30T10:54:19.106Z,25.53
2022-11-30T10:59:22.533Z,25.17
2022-11-30T11:04:17.810Z,24.37
2022-11-30T11:09:34.387Z,25.97
2022-11-30T11:14:28.052Z,27.20
2022-11-30T11:19:24.822Z,27.43
2022-11-30T11:24:19.907Z,26.60
2022-11-30T11:29:31.376Z,27.93
2022-11-30T11:34:31.902Z,27.53
2022-11-30T11:39:26.667Z,27.63
2022-11-30T11:44:25.776Z,28.20
2022-11-30T11:49:43.841Z,27.00
2022-11-30T11:54:39.309Z,28.80
2022-11-30T11:59:50.427Z,27.93
2022-11-30T12:04:50.772Z,30.33
2022-11-30T12:09:53.211Z,29.73
2022-11-30T12:14:44.788Z,31.07
2022-11-30T12:20:02.310Z,31.77
2022-11-30T12:25:26.480Z,30.83
2022-11-30T12:30:23.563Z,29.43
2022-11-30T12:35:22.513Z,29.93
2022-11-30T12:40:35.781Z,30.73
2022-11-30T12:45:43.807Z,30.83
2022-11-30T12:50:46.936Z,30.67
2022-11-30T12:55:51.080Z,29.43
2022-11-30T13:00:45.614Z,30.17
2022-11-30T13:05:47.403Z,28.70
2022-11-30T13:10:47.122Z,30.63
2022-11-30T13:15:40.194Z,29.27
2022-11-30T13:20:47.373Z,29.57
2022-11-30T13:26:22.394Z,31.70
2022-11-30T13:31:20.644Z,29.27
2022-11-30T13:36:34.561Z,29.70
2022-11-30T13:41:26.133Z,28.43
2022-11-30T13:46:22.265Z,28.03
2022-11-30T13:51:34.451Z,27.60
2022-11-30T13:56:34.165Z,29.20
2022-11-30T14:01:27.971Z,29.17
2022-11-30T14:06:59.450Z,27.93
2022-11-30T14:11:51.024Z,29.80
2022-11-30T14:16:42.982Z,27.27
2022-11-30T14:21:36.679Z,28.03
2022-11-30T14:26:39.945Z,27.37
2022-11-30T14:31:39.342Z,26.37
2022-11-30T14:36:38.969Z,25.50
2022-11-30T14:41:31.400Z,25.87
2022-11-30T14:46:26.706Z,25.30
2022-11-30T14:51:18.430Z,23.37
2022-11-30T14:56:36.545Z,24.47
2022-11-30T15:01:31.943Z,22.93
2022-11-30T15:06:30.733Z,24.63
2022-11-30T15:11:23.220Z,24.67
2022-11-30T15:16:28.383Z,23.83
2022-11-30T15:21:31.815Z,23.03
2022-11-30T15:26:52.975Z,23.37
2022-11-30T15:31:48.816Z,22.40
2022-11-30T15:36:40.404Z,22.73
2022-11-30T15:41:34.181Z,22.13
2022-11-30T15:46:46.311Z,23.23
2022-11-30T15:51:40.653Z,23.63
2022-11-30T15:56:32.283Z,23.13
2022-11-30T16:01:25.977Z,23.73
2022-11-30T16:06:20.011Z,24.07
2022-11-30T16:11:11.557Z,23.63
2022-11-30T16:16:11.959Z,24.10
2022-11-30T16:21:03.955Z,23.40
2022-11-30T16:25:56.112Z,22.37
2022-11-30T16:30:48.461Z,23.53
2022-11-30T16:35:57.820Z,24.27
2022-11-30T16:40:49.519Z,24.60
2022-11-30T16:45:43.853Z,23.00
2022-11-30T16:50:36.490Z,22.77
2022-11-30T16:55:35.060Z,20.47
2022-11-30T17:00:28.221Z,22.43
2022-11-30T17:05:19.861Z,22.37
2022-11-30T17:10:12.841Z,21.67
2022-11-30T17:15:06.941Z,21.20
2022-11-30T17:19:58.567Z,21.07
2022-11-30T17:24:50.601Z,21.07
2022-11-30T17:29:43.172Z,19.63
2022-11-30T17:34:34.749Z,18.73
2022-11-30T17:39:26.363Z,19.10
2022-11-30T17:44:17.913Z,19.27
2022-11-30T17:49:12.280Z,19.70
2022-11-30T17:54:03.934Z,18.00
2022-11-30T17:58:55.485Z,17.53
2022-11-30T18:03:48.156Z,18.77
2022-11-30T18:08:40.259Z,17.77
2022-11-30T18:13:31.888Z,19.73
2022-11-30T18:18:23.400Z,19.70
2022-11-30T18:23:14.906Z,19.00
2022-11-30T18:28:06.429Z,19.77
2022-11-30T18:32:58.309Z,21.07
2022-11-30T18:37:49.849Z,19.80
2022-11-30T18:42:41.491Z,17.77
2022-11-30T18:47:33.086Z,19.17
2022-11-30T18:52:24.704Z,16.83
2022-11-30T18:57:16.269Z,15.87
2022-11-30T19:02:08.879Z,14.67
2022-11-30T19:07:00.513Z,15.07
2022-11-30T19:11:52.269Z,14.90
2022-11-30T19:16:44.626Z,14.43
2022-11-30T19:21:36.401Z,15.30
2022-11-30T19:26:28.459Z,15.17
2022-11-30T19:31:20.678Z,14.43
2022-11-30T19:36:21.264Z,15.30
2022-11-30T19:41:14.357Z,14.53
2022-11-30T19:46:08.186Z,14.77
2022-11-30T19:51:00.084Z,14.93
2022-11-30T19:55:51.774Z,14.27
2022-11-30T20:00:45.965Z,15.17
2022-11-30T20:05:38.006Z,14.57
2022-11-30T20:10:32.116Z,13.37
2022-11-30T20:15:23.993Z,13.93
2022-11-30T20:20:15.615Z,14.13
2022-11-30T20:25:07.364Z,13.80
2022-11-30T20:29:58.925Z,14.77
2022-11-30T20:34:50.870Z,13.90
2022-11-30T20:39:45.687Z,14.17
2022-11-30T20:44:37.775Z,12.73
2022-11-30T20:49:29.576Z,13.00
2022-11-30T20:54:21.225Z,12.33
2022-11-30T20:59:15.301Z,12.10
2022-11-30T21:04:06.912Z,12.37
2022-11-30T21:08:59.043Z,10.63
2022-11-30T21:13:51.453Z,12.23
2022-11-30T21:18:44.826Z,11.67
2022-11-30T21:23:37.473Z,11.37
2022-11-30T21:28:32.430Z,12.27
2022-11-30T21:33:28.032Z,11.27
2022-11-30T21:38:19.568Z,9.87
2022-11-30T21:43:11.110Z,10.90
2022-11-30T21:48:04.189Z,10.77
2022-11-30T21:52:55.701Z,10.70
2022-11-30T21:57:47.295Z,10.23
2022-11-30T22:02:39.019Z,9.93
2022-11-30T22:07:33.647Z,10.27
2022-11-30T22:12:25.427Z,10.93
2022-11-30T22:17:17.327Z,10.50
2022-11-30T22:22:08.864Z,9.83
2022-11-30T22:27:00.469Z,10.97
2022-11-30T22:31:53.859Z,10.00
2022-11-30T22:36:46.591Z,10.97
2022-11-30T22:41:39.783Z,10.60
2022-11-30T22:46:34.406Z,11.17
2022-11-30T22:51:28.038Z,10.73
2022-11-30T22:56:22.446Z,10.50
2022-11-30T23:01:19.838Z,10.33
2022-11-30T23:06:13.183Z,10.43
2022-11-30T23:11:10.564Z,9.37
2022-11-30T23:16:04.524Z,9.80
2022-11-30T23:21:03.375Z,10.03
2022-11-30T23:25:54.915Z,10.13
2022-11-30T23:30:46.477Z,9.23
2022-11-30T23:35:43.088Z,9.17
2022-11-30T23:40:34.658Z,9.53
2022-11-30T23:45:26.244Z,9.20
2022-11-30T23:50:17.872Z,8.73
2022-11-30T23:55:09.776Z,8.40
